Time;durP1;ratioP1;P1;durP2;ratioP2;P2;SDS_P1;SDS_P2;PMS_P1;PMS_P2;Temp;Humidity;BMP_temperature;BMP_pressure;BME280_temperature;BME280_humidity;BME280_pressure;Samples;Min_cycle;Max_cycle;Signal;HPM_P1;HPM_P2
2022/03/11 00:01:50;;;;;;;9.93;5.90;;;;;;;;;;5054051;28;20409;-73
2022/03/11 00:04:16;;;;;;;12.60;6.87;;;;;;;;;;5053848;28;20467;-72
2022/03/11 00:06:42;;;;;;;9.13;7.10;;;;;;;;;;5053953;28;20539;-75
2022/03/11 00:09:08;;;;;;;10.40;6.90;;;;;;;;;;5053779;28;20589;-76
2022/03/11 00:11:34;;;;;;;9.77;6.37;;;;;;;;;;5053882;28;20496;-74
2022/03/11 00:14:00;;;;;;;9.90;6.97;;;;;;;;;;5053913;28;20496;-75
2022/03/11 00:16:27;;;;;;;12.53;7.23;;;;;;;;;;5053760;28;20437;-76
2022/03/11 00:18:53;;;;;;;11.37;7.60;;;;;;;;;;5053784;28;20460;-76
2022/03/11 00:21:19;;;;;;;10.10;7.43;;;;;;;;;;5053724;28;20473;-76
2022/03/11 00:23:45;;;;;;;10.50;7.60;;;;;;;;;;5053706;28;20420;-76
2022/03/11 00:26:11;;;;;;;10.93;8.03;;;;;;;;;;5053732;28;20750;-74
2022/03/11 00:28:37;;;;;;;14.07;8.20;;;;;;;;;;5053622;28;20847;-76
2022/03/11 00:31:04;;;;;;;11.20;7.47;;;;;;;;;;5053595;28;20511;-63
2022/03/11 00:33:30;;;;;;;10.30;7.20;;;;;;;;;;5053544;28;20447;-63
2022/03/11 00:35:56;;;;;;;10.17;7.83;;;;;;;;;;5052087;28;20419;-63
2022/03/11 00:38:22;;;;;;;12.87;8.23;;;;;;;;;;5053559;28;20417;-64
2022/03/11 00:40:51;;;;;;;13.17;8.43;;;;;;;;;;5053527;28;20435;-66
2022/03/11 00:43:17;;;;;;;14.60;8.50;;;;;;;;;;5053530;28;20400;-76
2022/03/11 00:45:43;;;;;;;13.50;8.10;;;;;;;;;;5053278;28;20394;-76
2022/03/11 00:48:09;;;;;;;13.17;9.50;;;;;;;;;;5053179;28;20456;-74
2022/03/11 00:50:35;;;;;;;13.93;9.00;;;;;;;;;;5053188;28;20532;-73
2022/03/11 00:53:02;;;;;;;10.27;8.00;;;;;;;;;;5053167;28;20483;-72
2022/03/11 00:55:28;;;;;;;10.10;7.77;;;;;;;;;;5053117;28;20407;-75
2022/03/11 00:57:54;;;;;;;19.10;9.60;;;;;;;;;;5053236;28;20463;-75
2022/03/11 01:00:20;;;;;;;14.07;8.80;;;;;;;;;;5053144;28;20420;-75
2022/03/11 01:02:46;;;;;;;12.20;8.30;;;;;;;;;;5053085;28;20448;-75
2022/03/11 01:05:12;;;;;;;18.13;8.87;;;;;;;;;;5052676;28;20461;-74
2022/03/11 01:07:38;;;;;;;12.90;9.20;;;;;;;;;;5053059;28;20842;-77
2022/03/11 01:10:06;;;;;;;12.00;9.03;;;;;;;;;;5053128;28;20426;-76
2022/03/11 01:12:32;;;;;;;14.00;9.50;;;;;;;;;;5051447;28;20490;-75
2022/03/11 01:14:58;;;;;;;16.10;9.93;;;;;;;;;;5053098;28;20431;-75
2022/03/11 01:17:24;;;;;;;17.30;10.53;;;;;;;;;;5053092;28;20466;-76
2022/03/11 01:19:50;;;;;;;14.00;9.97;;;;;;;;;;5052965;28;20611;-76
2022/03/11 01:22:17;;;;;;;15.80;9.37;;;;;;;;;;5052949;28;20408;-75
2022/03/11 01:24:43;;;;;;;14.93;9.50;;;;;;;;;;5052916;28;20410;-75
2022/03/11 01:27:09;;;;;;;15.03;11.03;;;;;;;;;;5052946;28;20437;-75
2022/03/11 01:29:35;;;;;;;18.60;10.20;;;;;;;;;;5052795;28;20430;-64
2022/03/11 01:32:01;;;;;;;15.90;9.83;;;;;;;;;;5051499;28;20889;-64
2022/03/11 01:34:27;;;;;;;20.60;11.63;;;;;;;;;;5052693;28;20916;-63
2022/03/11 01:36:53;;;;;;;17.60;9.80;;;;;;;;;;5052916;28;20412;-64
2022/03/11 01:39:19;;;;;;;17.03;10.57;;;;;;;;;;5052704;28;20423;-63
2022/03/11 01:41:45;;;;;;;18.47;10.47;;;;;;;;;;5052792;28;20402;-62
2022/03/11 01:44:11;;;;;;;14.83;10.23;;;;;;;;;;5052811;28;20442;-63
2022/03/11 01:46:38;;;;;;;16.40;10.50;;;;;;;;;;5052861;28;20402;-75
2022/03/11 01:49:06;;;;;;;15.47;10.10;;;;;;;;;;5052730;28;20963;-76
2022/03/11 01:51:33;;;;;;;17.73;10.07;;;;;;;;;;5052466;28;20430;-73
2022/03/11 01:53:59;;;;;;;15.83;8.83;;;;;;;;;;5052609;28;20874;-74
2022/03/11 01:56:26;;;;;;;15.97;9.23;;;;;;;;;;5052711;28;20401;-73
2022/03/11 01:58:53;;;;;;;10.77;8.30;;;;;;;;;;5052590;28;20774;-77
2022/03/11 02:01:19;;;;;;;17.27;9.23;;;;;;;;;;5052550;28;20415;-75
2022/03/11 02:03:45;;;;;;;14.50;9.10;;;;;;;;;;5052399;28;20470;-76
2022/03/11 02:06:15;;;;;;;13.97;9.33;;;;;;;;;;5052684;28;20496;-74
2022/03/11 02:08:42;;;;;;;12.97;9.30;;;;;;;;;;5052470;28;20840;-75
2022/03/11 02:11:08;;;;;;;12.97;9.37;;;;;;;;;;5052548;28;20414;-74
2022/03/11 02:13:44;;;;;;;16.60;10.40;;;;;;;;;;5052439;28;20410;-76
2022/03/11 02:16:20;;;;;;;17.33;10.97;;;;;;;;;;5052548;28;20393;-75
2022/03/11 02:18:47;;;;;;;16.03;11.87;;;;;;;;;;5055534;28;20411;-74
2022/03/11 02:21:14;;;;;;;17.57;10.93;;;;;;;;;;5056054;28;20506;-77
2022/03/11 02:23:46;;;;;;;16.93;11.03;;;;;;;;;;5056034;28;20414;-74
2022/03/11 02:26:13;;;;;;;16.17;10.23;;;;;;;;;;5055986;28;20420;-75
2022/03/11 02:28:40;;;;;;;16.60;10.93;;;;;;;;;;5055778;28;20979;-76
2022/03/11 02:31:06;;;;;;;14.77;10.20;;;;;;;;;;5055881;28;20429;-75
2022/03/11 02:33:32;;;;;;;16.70;10.00;;;;;;;;;;5055613;28;20488;-74
2022/03/11 02:35:58;;;;;;;15.87;9.63;;;;;;;;;;5055778;28;20443;-63
2022/03/11 02:38:24;;;;;;;18.90;11.40;;;;;;;;;;5055625;28;20778;-70
2022/03/11 02:40:50;;;;;;;17.90;10.40;;;;;;;;;;5054347;28;20418;-63
2022/03/11 02:43:17;;;;;;;16.00;10.80;;;;;;;;;;5055522;28;20506;-66
2022/03/11 02:45:43;;;;;;;17.60;10.73;;;;;;;;;;5055695;28;20416;-74
2022/03/11 02:48:09;;;;;;;20.80;11.70;;;;;;;;;;5055409;28;20466;-74
2022/03/11 02:50:36;;;;;;;20.03;10.83;;;;;;;;;;5055452;28;20527;-73
2022/03/11 02:53:01;;;;;;;17.30;11.30;;;;;;;;;;5055250;28;20407;-75
2022/03/11 02:55:27;;;;;;;20.13;12.20;;;;;;;;;;5055347;28;20446;-73
2022/03/11 02:57:53;;;;;;;20.40;12.50;;;;;;;;;;5055425;28;20405;-75
2022/03/11 03:00:20;;;;;;;20.83;12.40;;;;;;;;;;5055264;28;20410;-75
2022/03/11 03:02:46;;;;;;;20.40;12.07;;;;;;;;;;5055253;28;20808;-76
2022/03/11 03:05:13;;;;;;;19.90;12.80;;;;;;;;;;5055143;28;20463;-74
2022/03/11 03:07:39;;;;;;;19.70;13.07;;;;;;;;;;5055103;28;20502;-75
2022/03/11 03:10:06;;;;;;;18.17;12.10;;;;;;;;;;5055197;28;20415;-75
2022/03/11 03:12:32;;;;;;;24.50;13.37;;;;;;;;;;5054941;28;20406;-74
2022/03/11 03:14:58;;;;;;;18.30;12.17;;;;;;;;;;5055189;28;20468;-72
2022/03/11 03:17:24;;;;;;;21.33;12.20;;;;;;;;;;5055298;28;20744;-75
2022/03/11 03:19:50;;;;;;;22.43;13.40;;;;;;;;;;5054904;28;20426;-77
2022/03/11 03:22:16;;;;;;;21.90;13.60;;;;;;;;;;5054853;28;20410;-74
2022/03/11 03:24:43;;;;;;;19.97;13.10;;;;;;;;;;5054967;28;20410;-75
2022/03/11 03:27:09;;;;;;;26.60;14.23;;;;;;;;;;5054762;28;20419;-73
2022/03/11 03:29:35;;;;;;;22.40;14.30;;;;;;;;;;5054568;28;20431;-76
2022/03/11 03:32:01;;;;;;;20.57;13.10;;;;;;;;;;5054678;28;20506;-66
2022/03/11 03:34:31;;;;;;;22.27;13.80;;;;;;;;;;5054595;28;20518;-63
2022/03/11 03:37:00;;;;;;;23.10;14.33;;;;;;;;;;5054701;28;20395;-64
2022/03/11 03:39:26;;;;;;;21.47;13.63;;;;;;;;;;5054557;28;20415;-63
2022/03/11 03:41:53;;;;;;;25.63;14.90;;;;;;;;;;5054530;28;20414;-62
2022/03/11 03:44:19;;;;;;;23.83;13.93;;;;;;;;;;5054636;28;20524;-63
2022/03/11 03:46:45;;;;;;;21.63;14.63;;;;;;;;;;5054497;28;20427;-75
2022/03/11 03:49:11;;;;;;;24.70;15.53;;;;;;;;;;5054321;28;20473;-74
2022/03/11 03:51:40;;;;;;;20.47;13.13;;;;;;;;;;5054280;28;20425;-75
2022/03/11 03:54:07;;;;;;;22.77;13.40;;;;;;;;;;5054168;28;20468;-75
2022/03/11 03:56:36;;;;;;;25.77;14.73;;;;;;;;;;5054338;28;20408;-75
2022/03/11 03:59:04;;;;;;;26.57;15.63;;;;;;;;;;5054162;28;20398;-74
2022/03/11 04:01:32;;;;;;;24.00;14.60;;;;;;;;;;5054201;28;20465;-76
2022/03/11 04:03:59;;;;;;;26.33;14.40;;;;;;;;;;5053955;28;20958;-76
2022/03/11 04:06:25;;;;;;;24.00;14.10;;;;;;;;;;5052822;28;20848;-75
2022/03/11 04:08:51;;;;;;;22.40;14.30;;;;;;;;;;5053943;28;20824;-74
2022/03/11 04:11:17;;;;;;;25.73;13.90;;;;;;;;;;5053880;28;20929;-75
2022/03/11 04:13:43;;;;;;;26.40;15.13;;;;;;;;;;5053845;28;20439;-75
2022/03/11 04:16:09;;;;;;;23.37;13.23;;;;;;;;;;5053889;28;20466;-75
2022/03/11 04:18:35;;;;;;;21.80;13.30;;;;;;;;;;5053840;28;20515;-71
2022/03/11 04:21:01;;;;;;;22.27;14.03;;;;;;;;;;5053710;28;20464;-75
2022/03/11 04:23:27;;;;;;;22.43;14.20;;;;;;;;;;5053717;28;20407;-76
2022/03/11 04:25:53;;;;;;;26.80;14.80;;;;;;;;;;5053687;28;20407;-75
2022/03/11 04:28:19;;;;;;;23.03;14.00;;;;;;;;;;5053676;28;20473;-76
2022/03/11 04:30:45;;;;;;;21.93;12.80;;;;;;;;;;5052267;28;20427;-76
2022/03/11 04:33:11;;;;;;;22.43;13.30;;;;;;;;;;5053453;28;20469;-76
2022/03/11 04:35:37;;;;;;;27.83;14.00;;;;;;;;;;5052463;28;20421;-63
2022/03/11 04:38:03;;;;;;;24.70;13.00;;;;;;;;;;5053607;28;20439;-62
2022/03/11 04:40:29;;;;;;;23.20;13.33;;;;;;;;;;5052964;28;20423;-64
2022/03/11 04:42:55;;;;;;;20.40;12.57;;;;;;;;;;5053530;28;20453;-75
2022/03/11 04:45:21;;;;;;;23.17;13.40;;;;;;;;;;5053389;28;20408;-75
2022/03/11 04:47:47;;;;;;;27.07;15.20;;;;;;;;;;5052014;28;20489;-76
2022/03/11 04:50:14;;;;;;;25.67;14.00;;;;;;;;;;5053254;28;20953;-76
2022/03/11 04:52:40;;;;;;;22.97;14.23;;;;;;;;;;5053186;28;20458;-75
2022/03/11 04:55:06;;;;;;;21.40;13.43;;;;;;;;;;5053233;28;20485;-73
2022/03/11 04:57:32;;;;;;;22.00;13.57;;;;;;;;;;5053381;28;20447;-76
2022/03/11 05:00:00;;;;;;;24.70;13.13;;;;;;;;;;5053219;28;20550;-75
2022/03/11 05:02:27;;;;;;;23.03;12.17;;;;;;;;;;5053171;28;20935;-76
2022/03/11 05:04:54;;;;;;;20.20;12.70;;;;;;;;;;5053001;28;20470;-76
2022/03/11 05:07:20;;;;;;;20.10;12.17;;;;;;;;;;5053155;28;20917;-74
2022/03/11 05:09:46;;;;;;;20.77;12.10;;;;;;;;;;5053063;28;20416;-75
2022/03/11 05:12:12;;;;;;;20.30;13.03;;;;;;;;;;5051784;28;20416;-76
2022/03/11 05:14:38;;;;;;;24.60;12.53;;;;;;;;;;5052871;28;20917;-76
2022/03/11 05:17:05;;;;;;;23.40;12.20;;;;;;;;;;5053113;28;20431;-76
2022/03/11 05:19:31;;;;;;;22.93;12.27;;;;;;;;;;5053021;28;20494;-76
2022/03/11 05:21:57;;;;;;;19.90;12.13;;;;;;;;;;5052837;28;20530;-75
2022/03/11 05:24:23;;;;;;;24.40;13.70;;;;;;;;;;5053096;28;20456;-75
2022/03/11 05:26:49;;;;;;;22.90;12.70;;;;;;;;;;5051800;28;20961;-75
2022/03/11 05:29:15;;;;;;;21.47;12.80;;;;;;;;;;5052925;28;20969;-77
2022/03/11 05:31:41;;;;;;;19.40;12.60;;;;;;;;;;5052854;28;20466;-73
2022/03/11 05:34:08;;;;;;;20.90;12.87;;;;;;;;;;5052847;28;20517;-72
2022/03/11 05:36:35;;;;;;;19.73;11.63;;;;;;;;;;5052959;28;20406;-75
2022/03/11 05:39:01;;;;;;;22.50;12.17;;;;;;;;;;5052878;28;20532;-75
2022/03/11 05:41:27;;;;;;;20.33;11.87;;;;;;;;;;5052744;28;20426;-76
2022/03/11 05:43:53;;;;;;;17.77;11.73;;;;;;;;;;5052720;28;20832;-75
2022/03/11 05:46:22;;;;;;;20.90;12.50;;;;;;;;;;5052894;28;20394;-74
2022/03/11 05:48:48;;;;;;;25.73;12.93;;;;;;;;;;5052790;28;20461;-74
2022/03/11 05:51:14;;;;;;;19.77;12.27;;;;;;;;;;5052574;28;20437;-67
2022/03/11 05:53:40;;;;;;;23.37;11.63;;;;;;;;;;5055707;28;20411;-76
2022/03/11 05:56:06;;;;;;;24.17;12.90;;;;;;;;;;5056608;28;20439;-74
2022/03/11 05:58:32;;;;;;;18.70;11.00;;;;;;;;;;5056491;28;20768;-75
2022/03/11 06:00:58;;;;;;;23.27;11.27;;;;;;;;;;5056491;28;20407;-76
2022/03/11 06:03:24;;;;;;;19.40;10.80;;;;;;;;;;5056151;28;20412;-75
2022/03/11 06:05:51;;;;;;;21.70;11.47;;;;;;;;;;5056666;28;20463;-74
2022/03/11 06:08:17;;;;;;;17.13;10.40;;;;;;;;;;5056194;28;20517;-74
2022/03/11 06:10:44;;;;;;;21.73;10.97;;;;;;;;;;5055029;28;20444;-70
2022/03/11 06:13:10;;;;;;;21.70;12.10;;;;;;;;;;5056071;28;20403;-71
2022/03/11 06:15:36;;;;;;;17.10;10.73;;;;;;;;;;5056298;28;20552;-66
2022/03/11 06:18:02;;;;;;;19.37;10.77;;;;;;;;;;5056137;28;20402;-63
2022/03/11 06:20:30;;;;;;;18.30;11.13;;;;;;;;;;5056067;28;20426;-64
2022/03/11 06:22:56;;;;;;;21.50;10.83;;;;;;;;;;5056110;28;20406;-66
2022/03/11 06:25:23;;;;;;;20.67;10.70;;;;;;;;;;5056053;28;20406;-64
2022/03/11 06:27:49;;;;;;;18.53;10.77;;;;;;;;;;5056004;28;20461;-65
2022/03/11 06:30:15;;;;;;;21.93;11.90;;;;;;;;;;5055945;28;20914;-62
2022/03/11 06:32:45;;;;;;;18.63;10.60;;;;;;;;;;5055752;28;20417;-69
2022/03/11 06:35:13;;;;;;;18.13;10.77;;;;;;;;;;5055875;28;20452;-73
2022/03/11 06:37:39;;;;;;;17.40;10.20;;;;;;;;;;5055925;28;20409;-78
2022/03/11 06:40:06;;;;;;;19.57;11.33;;;;;;;;;;5054536;28;20785;-69
2022/03/11 06:42:41;;;;;;;20.90;11.43;;;;;;;;;;5055736;28;20465;-73
2022/03/11 06:45:08;;;;;;;14.83;9.17;;;;;;;;;;5055744;28;20761;-72
2022/03/11 06:47:35;;;;;;;17.20;10.20;;;;;;;;;;5055582;28;20465;-76
2022/03/11 06:50:01;;;;;;;17.97;10.07;;;;;;;;;;5055424;28;20451;-77
2022/03/11 06:52:27;;;;;;;15.73;9.93;;;;;;;;;;5055532;28;20411;-75
2022/03/11 06:54:53;;;;;;;22.87;10.50;;;;;;;;;;5055476;28;20564;-77
2022/03/11 06:57:20;;;;;;;16.83;9.77;;;;;;;;;;5055679;28;20879;-74
2022/03/11 06:59:47;;;;;;;21.70;10.30;;;;;;;;;;5055630;28;20410;-75
2022/03/11 07:02:13;;;;;;;17.23;9.60;;;;;;;;;;5055518;28;20442;-73
2022/03/11 07:04:39;;;;;;;19.60;10.90;;;;;;;;;;5054557;28;20465;-78
2022/03/11 07:07:05;;;;;;;17.20;9.70;;;;;;;;;;5055338;28;20443;-73
2022/03/11 07:09:31;;;;;;;14.13;9.30;;;;;;;;;;5053965;28;20481;-75
2022/03/11 07:12:00;;;;;;;12.77;8.43;;;;;;;;;;5055165;28;20407;-76
2022/03/11 07:14:27;;;;;;;14.83;8.20;;;;;;;;;;5054987;28;20415;-77
2022/03/11 07:16:53;;;;;;;13.80;8.60;;;;;;;;;;5055044;28;20423;-64
2022/03/11 07:19:19;;;;;;;12.40;8.30;;;;;;;;;;5054829;28;20757;-65
2022/03/11 07:21:45;;;;;;;14.17;7.80;;;;;;;;;;5054868;28;20427;-63
2022/03/11 07:24:11;;;;;;;13.43;8.60;;;;;;;;;;5054991;28;20410;-67
2022/03/11 07:26:37;;;;;;;17.97;8.90;;;;;;;;;;5053617;28;20433;-71
2022/03/11 07:29:05;;;;;;;18.10;9.70;;;;;;;;;;5054624;28;20474;-64
2022/03/11 07:31:31;;;;;;;13.77;8.37;;;;;;;;;;5054856;28;20756;-70
2022/03/11 07:33:57;;;;;;;14.33;8.40;;;;;;;;;;5054647;28;20429;-74
2022/03/11 07:36:23;;;;;;;14.60;8.63;;;;;;;;;;5054750;28;20738;-76
2022/03/11 07:38:49;;;;;;;12.17;8.67;;;;;;;;;;5054694;28;20516;-74
2022/03/11 07:41:20;;;;;;;14.47;8.10;;;;;;;;;;5054590;28;20411;-76
2022/03/11 07:43:46;;;;;;;17.57;9.00;;;;;;;;;;5054710;28;20444;-65
2022/03/11 07:46:14;;;;;;;16.67;8.57;;;;;;;;;;5054597;28;20425;-67
2022/03/11 07:48:40;;;;;;;15.27;7.67;;;;;;;;;;5054371;28;20470;-64
2022/03/11 07:51:07;;;;;;;14.50;8.47;;;;;;;;;;5054258;28;20450;-78
2022/03/11 07:53:33;;;;;;;16.10;8.73;;;;;;;;;;5054073;28;20780;-64
2022/03/11 07:55:59;;;;;;;14.27;9.00;;;;;;;;;;5053061;28;20822;-71
2022/03/11 07:58:25;;;;;;;17.80;8.77;;;;;;;;;;5054369;28;20764;-70
2022/03/11 08:00:52;;;;;;;16.50;9.40;;;;;;;;;;5054041;28;20404;-74
2022/03/11 08:03:18;;;;;;;17.23;9.43;;;;;;;;;;5054078;28;20416;-75
2022/03/11 08:05:44;;;;;;;15.67;8.87;;;;;;;;;;5054209;28;20414;-76
2022/03/11 08:08:11;;;;;;;14.30;8.87;;;;;;;;;;5054094;28;20977;-77
2022/03/11 08:10:39;;;;;;;16.00;8.80;;;;;;;;;;5054003;28;20496;-62
2022/03/11 08:13:08;;;;;;;20.03;10.13;;;;;;;;;;5053906;28;20414;-63
2022/03/11 08:15:35;;;;;;;13.67;9.33;;;;;;;;;;5053031;28;20944;-69
2022/03/11 08:18:01;;;;;;;16.43;9.90;;;;;;;;;;5053889;28;20947;-63
2022/03/11 08:20:27;;;;;;;14.93;8.60;;;;;;;;;;5053818;28;20428;-62
2022/03/11 08:22:54;;;;;;;15.47;9.07;;;;;;;;;;5053800;28;20395;-65
2022/03/11 08:25:21;;;;;;;18.07;9.20;;;;;;;;;;5053794;28;20463;-65
2022/03/11 08:27:47;;;;;;;17.13;9.60;;;;;;;;;;5053785;28;20461;-73
2022/03/11 08:30:13;;;;;;;17.57;8.63;;;;;;;;;;5053742;28;20415;-77
2022/03/11 08:32:40;;;;;;;15.43;7.93;;;;;;;;;;5053519;28;20465;-78
2022/03/11 08:35:07;;;;;;;15.10;9.30;;;;;;;;;;5053772;28;20429;-75
2022/03/11 08:37:34;;;;;;;15.47;10.30;;;;;;;;;;5053571;28;20410;-75
2022/03/11 08:40:00;;;;;;;17.03;9.30;;;;;;;;;;5053624;28;20421;-79
2022/03/11 08:42:26;;;;;;;14.50;9.50;;;;;;;;;;5053668;28;20908;-77
2022/03/11 08:44:52;;;;;;;14.93;9.90;;;;;;;;;;5053585;28;20407;-76
2022/03/11 08:47:18;;;;;;;16.17;9.10;;;;;;;;;;5053455;28;20764;-76
2022/03/11 08:49:44;;;;;;;12.97;8.57;;;;;;;;;;5053303;28;20468;-78
2022/03/11 08:52:10;;;;;;;13.70;9.20;;;;;;;;;;5053326;28;20398;-74
2022/03/11 08:54:36;;;;;;;16.23;9.03;;;;;;;;;;5053287;28;20442;-76
2022/03/11 08:57:03;;;;;;;13.73;9.27;;;;;;;;;;5053374;28;20404;-78
2022/03/11 08:59:29;;;;;;;15.13;8.63;;;;;;;;;;5053334;28;20402;-72
2022/03/11 09:01:55;;;;;;;12.07;8.10;;;;;;;;;;5053220;28;20420;-62
2022/03/11 09:04:21;;;;;;;14.87;9.30;;;;;;;;;;5052869;28;20457;-65
2022/03/11 09:06:48;;;;;;;13.57;8.90;;;;;;;;;;5053154;28;20447;-68
2022/03/11 09:09:14;;;;;;;14.87;9.97;;;;;;;;;;5053017;28;20542;-67
2022/03/11 09:11:40;;;;;;;15.87;9.67;;;;;;;;;;5053146;28;20406;-73
2022/03/11 09:14:07;;;;;;;15.90;9.47;;;;;;;;;;5052997;28;20416;-68
2022/03/11 09:16:33;;;;;;;15.90;9.37;;;;;;;;;;5051702;28;20423;-68
2022/03/11 09:19:01;;;;;;;14.10;9.23;;;;;;;;;;5051733;28;20430;-64
2022/03/11 09:21:28;;;;;;;17.67;10.47;;;;;;;;;;5052760;28;20865;-69
2022/03/11 09:23:54;;;;;;;19.37;9.93;;;;;;;;;;5052992;28;20412;-66
2022/03/11 09:26:20;;;;;;;12.30;9.00;;;;;;;;;;5052802;28;20409;-64
2022/03/11 09:28:46;;;;;;;12.07;8.97;;;;;;;;;;5057127;28;20808;-64
2022/03/11 09:31:12;;;;;;;14.93;9.00;;;;;;;;;;5057226;28;20416;-76
2022/03/11 09:33:39;;;;;;;16.47;9.80;;;;;;;;;;5057054;28;20405;-77
2022/03/11 09:36:05;;;;;;;19.93;9.93;;;;;;;;;;5057200;28;20982;-79
2022/03/11 09:38:32;;;;;;;14.90;9.90;;;;;;;;;;5057125;28;20417;-75
2022/03/11 09:40:58;;;;;;;14.77;10.27;;;;;;;;;;5056782;28;20413;-74
2022/03/11 09:43:26;;;;;;;15.10;9.80;;;;;;;;;;5056874;28;20483;-77
2022/03/11 09:45:52;;;;;;;17.03;9.70;;;;;;;;;;5056740;28;20451;-75
2022/03/11 09:48:19;;;;;;;14.60;10.03;;;;;;;;;;5056744;28;20504;-74
2022/03/11 09:50:45;;;;;;;16.37;9.90;;;;;;;;;;5056709;28;20920;-75
2022/03/11 09:53:12;;;;;;;15.03;8.60;;;;;;;;;;5056618;28;20410;-78
2022/03/11 09:55:41;;;;;;;16.77;9.57;;;;;;;;;;5056652;28;20440;-78
2022/03/11 09:58:07;;;;;;;13.90;9.23;;;;;;;;;;5056600;28;20402;-77
2022/03/11 10:00:34;;;;;;;15.57;9.80;;;;;;;;;;5056629;28;20422;-76
2022/03/11 10:03:00;;;;;;;13.77;8.87;;;;;;;;;;5056589;28;20508;-71
2022/03/11 10:05:46;;;;;;;15.60;8.80;;;;;;;;;;5056344;28;20459;-64
2022/03/11 10:08:13;;;;;;;14.70;9.20;;;;;;;;;;5055975;28;20461;-63
2022/03/11 10:10:39;;;;;;;17.30;8.50;;;;;;;;;;5056238;28;20413;-63
2022/03/11 10:13:07;;;;;;;15.73;8.93;;;;;;;;;;5056254;28;20907;-63
2022/03/11 10:15:33;;;;;;;11.03;7.43;;;;;;;;;;5056310;28;20402;-64
2022/03/11 10:18:02;;;;;;;14.27;7.97;;;;;;;;;;5054989;28;20429;-63
2022/03/11 10:20:29;;;;;;;13.63;9.37;;;;;;;;;;5056217;28;20940;-65
2022/03/11 10:22:57;;;;;;;13.50;8.23;;;;;;;;;;5056119;28;20896;-69
2022/03/11 10:25:25;;;;;;;12.00;8.70;;;;;;;;;;5056257;28;20421;-68
2022/03/11 10:28:10;;;;;;;14.40;9.07;;;;;;;;;;5057661;28;20477;-68
2022/03/11 10:30:40;;;;;;;11.77;7.70;;;;;;;;;;5055947;28;20415;-68
2022/03/11 10:33:11;;;;;;;17.70;9.27;;;;;;;;;;5054663;28;20917;-67
2022/03/11 10:35:37;;;;;;;16.83;8.43;;;;;;;;;;5056007;28;20461;-70
2022/03/11 10:38:08;;;;;;;15.77;9.13;;;;;;;;;;5055111;28;20401;-78
2022/03/11 10:40:35;;;;;;;14.27;8.90;;;;;;;;;;5055890;28;20421;-74
2022/03/11 10:43:14;;;;;;;14.53;9.50;;;;;;;;;;5054796;28;20417;-79
2022/03/11 10:45:47;;;;;;;18.90;9.53;;;;;;;;;;5055790;28;20838;-77
2022/03/11 10:48:13;;;;;;;12.43;8.67;;;;;;;;;;5055692;28;21004;-66
2022/03/11 10:50:39;;;;;;;12.20;8.40;;;;;;;;;;5055583;28;20429;-77
2022/03/11 10:53:07;;;;;;;15.27;7.80;;;;;;;;;;5055749;28;20500;-70
2022/03/11 10:55:33;;;;;;;14.60;9.30;;;;;;;;;;5055711;28;20405;-67
2022/03/11 10:58:06;;;;;;;15.63;8.53;;;;;;;;;;5055428;28;20420;-69
2022/03/11 11:00:33;;;;;;;16.07;9.17;;;;;;;;;;5056074;28;20406;-65
2022/03/11 11:03:01;;;;;;;12.07;8.67;;;;;;;;;;5054600;28;20775;-65
2022/03/11 11:05:28;;;;;;;15.40;9.73;;;;;;;;;;5054980;28;20457;-65
2022/03/11 11:07:54;;;;;;;11.70;8.90;;;;;;;;;;5055250;28;21014;-65
2022/03/11 11:10:21;;;;;;;12.67;9.10;;;;;;;;;;5055343;28;20520;-64
2022/03/11 11:12:48;;;;;;;12.53;8.83;;;;;;;;;;5055068;28;20439;-65
2022/03/11 11:15:17;;;;;;;16.97;9.60;;;;;;;;;;5055054;28;20444;-66
2022/03/11 11:17:44;;;;;;;15.90;9.60;;;;;;;;;;5055134;28;20394;-64
2022/03/11 11:20:17;;;;;;;14.80;9.70;;;;;;;;;;5053650;28;20441;-68
2022/03/11 11:22:44;;;;;;;14.77;10.10;;;;;;;;;;5055248;28;20437;-68
2022/03/11 11:25:10;;;;;;;12.07;8.90;;;;;;;;;;5055780;28;20412;-64
2022/03/11 11:27:37;;;;;;;14.63;8.90;;;;;;;;;;5054807;28;20508;-75
2022/03/11 11:30:03;;;;;;;14.00;8.87;;;;;;;;;;5055002;28;20496;-77
2022/03/11 11:32:29;;;;;;;17.17;10.20;;;;;;;;;;5054866;28;20505;-74
2022/03/11 11:34:57;;;;;;;22.90;10.27;;;;;;;;;;5054711;28;20402;-66
2022/03/11 11:37:36;;;;;;;14.07;9.60;;;;;;;;;;5054709;28;20414;-75
2022/03/11 11:40:17;;;;;;;11.50;8.43;;;;;;;;;;5054708;28;20413;-74
2022/03/11 11:42:42;;;;;;;16.20;9.23;;;;;;;;;;5054676;28;20433;-78
2022/03/11 11:45:18;;;;;;;17.30;11.37;;;;;;;;;;5054477;28;20428;-74
2022/03/11 11:47:44;;;;;;;16.10;10.20;;;;;;;;;;5054464;28;20472;-69
2022/03/11 11:50:16;;;;;;;13.63;9.60;;;;;;;;;;5054214;28;20445;-68
2022/03/11 11:52:53;;;;;;;13.70;8.93;;;;;;;;;;5054128;28;20905;-77
2022/03/11 11:55:21;;;;;;;14.70;9.13;;;;;;;;;;5053079;28;20500;-70
2022/03/11 11:57:47;;;;;;;16.07;10.30;;;;;;;;;;5054360;28;20524;-66
2022/03/11 12:00:32;;;;;;;17.43;10.00;;;;;;;;;;5054221;28;20405;-72
2022/03/11 12:03:01;;;;;;;16.97;10.30;;;;;;;;;;5052874;28;20421;-67
2022/03/11 12:05:44;;;;;;;14.50;10.00;;;;;;;;;;5053975;28;20511;-70
2022/03/11 12:08:11;;;;;;;16.30;9.90;;;;;;;;;;5053978;28;20975;-66
2022/03/11 12:10:50;;;;;;;13.00;9.87;;;;;;;;;;5053898;28;20429;-65
2022/03/11 12:13:31;;;;;;;17.03;10.67;;;;;;;;;;5053706;28;20914;-67
2022/03/11 12:15:57;;;;;;;15.93;10.37;;;;;;;;;;5053915;28;20491;-63
2022/03/11 12:18:37;;;;;;;15.60;9.40;;;;;;;;;;5054198;28;20449;-65
2022/03/11 12:21:03;;;;;;;16.23;10.00;;;;;;;;;;5054370;28;20437;-63
2022/03/11 12:23:33;;;;;;;19.83;10.10;;;;;;;;;;5054012;28;20404;-71
2022/03/11 12:26:07;;;;;;;16.87;10.10;;;;;;;;;;5053929;28;20406;-67
2022/03/11 12:28:39;;;;;;;13.80;10.17;;;;;;;;;;5053826;28;20640;-69
2022/03/11 12:31:05;;;;;;;15.90;9.57;;;;;;;;;;5053689;28;20770;-71
2022/03/11 12:33:33;;;;;;;21.03;10.30;;;;;;;;;;5053634;28;20430;-64
2022/03/11 12:36:00;;;;;;;17.30;10.60;;;;;;;;;;5053693;28;20467;-75
2022/03/11 12:38:27;;;;;;;15.67;9.50;;;;;;;;;;5053519;28;20413;-72
2022/03/11 12:40:53;;;;;;;15.97;9.43;;;;;;;;;;5053577;28;20467;-77
2022/03/11 12:43:21;;;;;;;13.93;9.90;;;;;;;;;;5053454;28;20914;-64
2022/03/11 12:45:54;;;;;;;15.87;10.53;;;;;;;;;;5053362;28;20462;-68
2022/03/11 12:48:31;;;;;;;17.63;10.80;;;;;;;;;;5053249;28;20566;-69
2022/03/11 12:50:58;;;;;;;13.20;8.97;;;;;;;;;;5053172;28;20421;-65
2022/03/11 12:53:25;;;;;;;13.47;10.03;;;;;;;;;;5053243;28;20417;-66
2022/03/11 12:55:52;;;;;;;14.80;9.83;;;;;;;;;;5053602;28;20398;-64
2022/03/11 12:58:19;;;;;;;13.47;9.23;;;;;;;;;;5053343;28;20406;-64
2022/03/11 13:00:46;;;;;;;16.80;9.80;;;;;;;;;;5052753;28;20455;-64
2022/03/11 13:03:13;;;;;;;17.00;10.17;;;;;;;;;;5053187;28;20410;-66
2022/03/11 13:05:41;;;;;;;15.90;9.80;;;;;;;;;;5053078;28;20473;-67
2022/03/11 13:08:08;;;;;;;15.60;9.60;;;;;;;;;;5053099;28;20490;-69
2022/03/11 13:10:35;;;;;;;16.07;10.70;;;;;;;;;;5053034;28;20406;-63
2022/03/11 13:13:03;;;;;;;19.30;9.70;;;;;;;;;;5053062;28;20774;-67
2022/03/11 13:15:30;;;;;;;14.33;10.50;;;;;;;;;;5052964;28;20406;-64
2022/03/11 13:17:59;;;;;;;18.27;11.03;;;;;;;;;;5053600;28;20410;-69
2022/03/11 13:20:46;;;;;;;14.93;9.50;;;;;;;;;;5056214;28;20421;-65
2022/03/11 13:23:13;;;;;;;16.57;10.63;;;;;;;;;;5052987;28;20436;-74
2022/03/11 13:25:46;;;;;;;16.70;10.03;;;;;;;;;;5053152;28;20759;-71
2022/03/11 13:28:12;;;;;;;14.93;9.77;;;;;;;;;;5053051;28;20449;-76
2022/03/11 13:30:39;;;;;;;17.73;11.03;;;;;;;;;;5052945;28;20410;-78
2022/03/11 13:33:13;;;;;;;14.40;10.00;;;;;;;;;;5052845;28;20835;-66
2022/03/11 13:35:39;;;;;;;15.67;10.20;;;;;;;;;;5052960;28;20410;-72
2022/03/11 13:38:05;;;;;;;13.70;9.30;;;;;;;;;;5053081;28;20405;-72
2022/03/11 13:40:31;;;;;;;17.30;10.57;;;;;;;;;;5052707;28;20413;-69
2022/03/11 13:42:59;;;;;;;15.50;9.90;;;;;;;;;;5052792;28;20487;-67
2022/03/11 13:45:36;;;;;;;16.83;10.17;;;;;;;;;;5052834;28;20420;-64
2022/03/11 13:48:09;;;;;;;19.80;10.73;;;;;;;;;;5052746;28;20463;-65
2022/03/11 13:50:36;;;;;;;14.57;9.93;;;;;;;;;;5052704;28;20452;-63
2022/03/11 13:53:02;;;;;;;22.50;10.77;;;;;;;;;;5052697;28;20901;-65
2022/03/11 13:55:33;;;;;;;15.83;10.30;;;;;;;;;;5052745;28;20790;-66
2022/03/11 13:58:17;;;;;;;16.70;10.73;;;;;;;;;;5052691;28;20405;-65
2022/03/11 14:00:44;;;;;;;14.93;10.57;;;;;;;;;;5052868;28;20686;-67
2022/03/11 14:03:18;;;;;;;16.13;10.10;;;;;;;;;;5052756;28;20404;-68
2022/03/11 14:05:45;;;;;;;15.50;10.40;;;;;;;;;;5051573;28;20437;-64
2022/03/11 14:08:14;;;;;;;19.83;10.13;;;;;;;;;;5052880;28;20453;-65
2022/03/11 14:10:42;;;;;;;15.20;9.83;;;;;;;;;;5053249;28;20970;-67
2022/03/11 14:13:09;;;;;;;19.40;10.97;;;;;;;;;;5053311;28;20479;-63
2022/03/11 14:15:36;;;;;;;16.37;9.60;;;;;;;;;;5056326;28;20414;-65
2022/03/11 14:18:08;;;;;;;14.27;9.90;;;;;;;;;;5057505;28;20896;-65
2022/03/11 14:20:34;;;;;;;17.30;11.63;;;;;;;;;;5056302;28;20432;-79
2022/03/11 14:23:00;;;;;;;15.73;9.80;;;;;;;;;;5056157;28;20421;-77
2022/03/11 14:25:27;;;;;;;17.40;10.60;;;;;;;;;;5056165;28;20881;-76